sensor_id;sensor_type;location;lat;lon;timestamp;P1;durP1;ratioP1;P2;durP2;ratioP2
2646;SDS011;1333;50.958;6.770;2023-09-18T00:00:41;7.83;;;4.33;;
2646;SDS011;1333;50.958;6.770;2023-09-18T00:03:10;4.40;;;3.90;;
2646;SDS011;1333;50.958;6.770;2023-09-18T00:05:36;4.87;;;4.37;;
2646;SDS011;1333;50.958;6.770;2023-09-18T00:08:01;5.43;;;4.80;;
2646;SDS011;1333;50.958;6.770;2023-09-18T00:10:27;6.60;;;4.63;;
2646;SDS011;1333;50.958;6.770;2023-09-18T00:12:54;5.60;;;4.70;;
2646;SDS011;1333;50.958;6.770;2023-09-18T00:15:19;7.00;;;5.07;;
2646;SDS011;1333;50.958;6.770;2023-09-18T00:17:45;5.57;;;4.90;;
2646;SDS011;1333;50.958;6.770;2023-09-18T00:20:11;4.50;;;4.10;;
2646;SDS011;1333;50.958;6.770;2023-09-18T00:22:37;6.13;;;5.20;;
2646;SDS011;1333;50.958;6.770;2023-09-18T00:25:02;4.20;;;3.87;;
2646;SDS011;1333;50.958;6.770;2023-09-18T00:27:28;6.17;;;4.63;;
2646;SDS011;1333;50.958;6.770;2023-09-18T00:29:54;7.60;;;4.60;;
2646;SDS011;1333;50.958;6.770;2023-09-18T00:32:20;5.60;;;5.00;;
2646;SDS011;1333;50.958;6.770;2023-09-18T00:34:46;9.77;;;3.90;;
2646;SDS011;1333;50.958;6.770;2023-09-18T00:37:11;5.60;;;4.80;;
2646;SDS011;1333;50.958;6.770;2023-09-18T00:39:37;5.53;;;4.97;;
2646;SDS011;1333;50.958;6.770;2023-09-18T00:42:03;7.67;;;5.27;;
2646;SDS011;1333;50.958;6.770;2023-09-18T00:44:29;5.90;;;5.30;;
2646;SDS011;1333;50.958;6.770;2023-09-18T00:46:54;5.73;;;5.23;;
2646;SDS011;1333;50.958;6.770;2023-09-18T00:49:20;5.63;;;5.07;;
2646;SDS011;1333;50.958;6.770;2023-09-18T00:51:47;5.93;;;5.30;;
2646;SDS011;1333;50.958;6.770;2023-09-18T00:54:14;5.63;;;5.13;;
2646;SDS011;1333;50.958;6.770;2023-09-18T00:56:44;5.20;;;4.67;;
2646;SDS011;1333;50.958;6.770;2023-09-18T00:59:10;5.60;;;5.00;;
2646;SDS011;1333;50.958;6.770;2023-09-18T01:01:37;6.30;;;5.03;;
2646;SDS011;1333;50.958;6.770;2023-09-18T01:04:04;10.17;;;5.40;;
2646;SDS011;1333;50.958;6.770;2023-09-18T01:06:30;8.70;;;4.50;;
2646;SDS011;1333;50.958;6.770;2023-09-18T01:08:55;9.90;;;6.60;;
2646;SDS011;1333;50.958;6.770;2023-09-18T01:11:36;9.00;;;5.37;;
2646;SDS011;1333;50.958;6.770;2023-09-18T01:16:58;5.47;;;4.80;;
2646;SDS011;1333;50.958;6.770;2023-09-18T01:19:40;6.63;;;5.07;;
2646;SDS011;1333;50.958;6.770;2023-09-18T01:22:07;6.07;;;5.10;;
2646;SDS011;1333;50.958;6.770;2023-09-18T01:24:35;5.97;;;5.40;;
2646;SDS011;1333;50.958;6.770;2023-09-18T01:27:02;6.10;;;5.50;;
2646;SDS011;1333;50.958;6.770;2023-09-18T01:29:29;6.00;;;4.60;;
2646;SDS011;1333;50.958;6.770;2023-09-18T01:31:56;7.10;;;4.97;;
2646;SDS011;1333;50.958;6.770;2023-09-18T01:34:23;6.60;;;5.40;;
2646;SDS011;1333;50.958;6.770;2023-09-18T01:36:53;5.90;;;4.33;;
2646;SDS011;1333;50.958;6.770;2023-09-18T01:39:22;6.37;;;5.40;;
2646;SDS011;1333;50.958;6.770;2023-09-18T01:41:48;7.73;;;5.43;;
2646;SDS011;1333;50.958;6.770;2023-09-18T01:44:15;8.10;;;5.67;;
2646;SDS011;1333;50.958;6.770;2023-09-18T01:46:40;6.70;;;5.87;;
2646;SDS011;1333;50.958;6.770;2023-09-18T01:49:08;6.67;;;5.90;;
2646;SDS011;1333;50.958;6.770;2023-09-18T01:51:34;7.80;;;6.17;;
2646;SDS011;1333;50.958;6.770;2023-09-18T01:54:00;6.90;;;5.40;;
2646;SDS011;1333;50.958;6.770;2023-09-18T01:56:26;6.00;;;5.37;;
2646;SDS011;1333;50.958;6.770;2023-09-18T01:58:51;8.60;;;6.60;;
2646;SDS011;1333;50.958;6.770;2023-09-18T02:01:17;8.90;;;7.00;;
2646;SDS011;1333;50.958;6.770;2023-09-18T02:03:42;10.30;;;6.30;;
2646;SDS011;1333;50.958;6.770;2023-09-18T02:06:08;7.97;;;5.77;;
2646;SDS011;1333;50.958;6.770;2023-09-18T02:08:34;6.37;;;5.77;;
2646;SDS011;1333;50.958;6.770;2023-09-18T02:11:00;7.00;;;5.80;;
2646;SDS011;1333;50.958;6.770;2023-09-18T02:13:25;8.57;;;5.93;;
2646;SDS011;1333;50.958;6.770;2023-09-18T02:15:51;8.10;;;6.40;;
2646;SDS011;1333;50.958;6.770;2023-09-18T02:18:17;9.53;;;7.00;;
2646;SDS011;1333;50.958;6.770;2023-09-18T02:20:43;8.00;;;5.87;;
2646;SDS011;1333;50.958;6.770;2023-09-18T02:23:12;8.30;;;6.67;;
2646;SDS011;1333;50.958;6.770;2023-09-18T02:25:38;6.90;;;5.70;;
2646;SDS011;1333;50.958;6.770;2023-09-18T02:28:05;11.17;;;6.43;;
2646;SDS011;1333;50.958;6.770;2023-09-18T02:30:31;8.30;;;6.37;;
2646;SDS011;1333;50.958;6.770;2023-09-18T02:32:56;8.10;;;5.60;;
2646;SDS011;1333;50.958;6.770;2023-09-18T02:35:22;10.27;;;6.60;;
2646;SDS011;1333;50.958;6.770;2023-09-18T02:37:47;9.87;;;6.40;;
2646;SDS011;1333;50.958;6.770;2023-09-18T02:40:13;8.70;;;7.30;;
2646;SDS011;1333;50.958;6.770;2023-09-18T02:42:39;6.77;;;5.97;;
2646;SDS011;1333;50.958;6.770;2023-09-18T02:45:04;7.40;;;6.13;;
2646;SDS011;1333;50.958;6.770;2023-09-18T02:47:30;6.37;;;5.20;;
2646;SDS011;1333;50.958;6.770;2023-09-18T02:49:57;6.83;;;6.13;;
2646;SDS011;1333;50.958;6.770;2023-09-18T02:52:22;13.03;;;6.00;;
2646;SDS011;1333;50.958;6.770;2023-09-18T02:54:48;7.33;;;6.40;;
2646;SDS011;1333;50.958;6.770;2023-09-18T02:57:13;6.90;;;6.20;;
2646;SDS011;1333;50.958;6.770;2023-09-18T02:59:39;6.47;;;5.50;;
2646;SDS011;1333;50.958;6.770;2023-09-18T03:02:04;5.77;;;5.13;;
2646;SDS011;1333;50.958;6.770;2023-09-18T03:04:31;6.43;;;5.80;;
2646;SDS011;1333;50.958;6.770;2023-09-18T03:06:56;7.73;;;5.70;;
2646;SDS011;1333;50.958;6.770;2023-09-18T03:09:22;5.80;;;5.20;;
2646;SDS011;1333;50.958;6.770;2023-09-18T03:11:47;4.57;;;4.13;;
2646;SDS011;1333;50.958;6.770;2023-09-18T03:14:13;5.93;;;5.33;;
2646;SDS011;1333;50.958;6.770;2023-09-18T03:16:38;8.70;;;6.90;;
2646;SDS011;1333;50.958;6.770;2023-09-18T03:19:04;7.20;;;5.87;;
2646;SDS011;1333;50.958;6.770;2023-09-18T03:21:29;5.13;;;4.60;;
2646;SDS011;1333;50.958;6.770;2023-09-18T03:23:58;7.07;;;4.53;;
2646;SDS011;1333;50.958;6.770;2023-09-18T03:26:24;7.40;;;5.40;;
2646;SDS011;1333;50.958;6.770;2023-09-18T03:28:49;5.87;;;4.77;;
2646;SDS011;1333;50.958;6.770;2023-09-18T03:31:15;5.57;;;5.10;;
2646;SDS011;1333;50.958;6.770;2023-09-18T03:33:40;11.77;;;5.90;;
2646;SDS011;1333;50.958;6.770;2023-09-18T03:36:06;7.30;;;4.63;;
2646;SDS011;1333;50.958;6.770;2023-09-18T03:38:32;7.63;;;5.00;;
2646;SDS011;1333;50.958;6.770;2023-09-18T03:41:00;5.43;;;4.93;;
2646;SDS011;1333;50.958;6.770;2023-09-18T03:43:26;9.20;;;5.03;;
2646;SDS011;1333;50.958;6.770;2023-09-18T03:45:51;6.70;;;4.17;;
2646;SDS011;1333;50.958;6.770;2023-09-18T03:48:17;5.40;;;4.07;;
2646;SDS011;1333;50.958;6.770;2023-09-18T03:50:43;11.27;;;4.30;;
2646;SDS011;1333;50.958;6.770;2023-09-18T03:53:09;4.40;;;3.50;;
2646;SDS011;1333;50.958;6.770;2023-09-18T03:55:34;7.40;;;3.93;;
2646;SDS011;1333;50.958;6.770;2023-09-18T03:58:00;6.00;;;3.67;;
2646;SDS011;1333;50.958;6.770;2023-09-18T04:00:26;7.13;;;3.37;;
2646;SDS011;1333;50.958;6.770;2023-09-18T04:02:51;6.17;;;3.50;;
2646;SDS011;1333;50.958;6.770;2023-09-18T04:05:17;5.87;;;3.80;;
2646;SDS011;1333;50.958;6.770;2023-09-18T04:07:43;6.37;;;3.60;;
2646;SDS011;1333;50.958;6.770;2023-09-18T04:10:11;9.70;;;4.37;;
2646;SDS011;1333;50.958;6.770;2023-09-18T04:12:43;5.43;;;3.50;;
2646;SDS011;1333;50.958;6.770;2023-09-18T04:15:11;5.70;;;4.03;;
2646;SDS011;1333;50.958;6.770;2023-09-18T04:17:39;6.00;;;3.50;;
2646;SDS011;1333;50.958;6.770;2023-09-18T04:20:04;7.37;;;4.47;;
2646;SDS011;1333;50.958;6.770;2023-09-18T04:22:31;5.20;;;3.57;;
2646;SDS011;1333;50.958;6.770;2023-09-18T04:24:56;3.70;;;2.90;;
2646;SDS011;1333;50.958;6.770;2023-09-18T04:27:22;7.00;;;3.87;;
2646;SDS011;1333;50.958;6.770;2023-09-18T04:29:47;8.43;;;4.83;;
2646;SDS011;1333;50.958;6.770;2023-09-18T04:32:13;4.40;;;2.90;;
2646;SDS011;1333;50.958;6.770;2023-09-18T04:34:38;3.63;;;3.07;;
2646;SDS011;1333;50.958;6.770;2023-09-18T04:37:04;6.40;;;3.07;;
2646;SDS011;1333;50.958;6.770;2023-09-18T04:39:30;6.87;;;3.10;;
2646;SDS011;1333;50.958;6.770;2023-09-18T04:41:55;6.30;;;4.27;;
2646;SDS011;1333;50.958;6.770;2023-09-18T04:44:21;4.30;;;3.10;;
2646;SDS011;1333;50.958;6.770;2023-09-18T04:46:46;4.63;;;2.80;;
2646;SDS011;1333;50.958;6.770;2023-09-18T04:49:12;6.00;;;2.97;;
2646;SDS011;1333;50.958;6.770;2023-09-18T04:51:38;5.77;;;3.10;;
2646;SDS011;1333;50.958;6.770;2023-09-18T04:54:06;5.50;;;2.87;;
2646;SDS011;1333;50.958;6.770;2023-09-18T04:56:32;5.77;;;2.90;;
2646;SDS011;1333;50.958;6.770;2023-09-18T04:58:57;5.07;;;2.63;;
2646;SDS011;1333;50.958;6.770;2023-09-18T05:01:23;6.53;;;4.03;;
2646;SDS011;1333;50.958;6.770;2023-09-18T05:03:49;3.43;;;2.70;;
2646;SDS011;1333;50.958;6.770;2023-09-18T05:06:16;9.13;;;3.80;;
2646;SDS011;1333;50.958;6.770;2023-09-18T05:08:42;3.87;;;2.60;;
2646;SDS011;1333;50.958;6.770;2023-09-18T05:11:08;2.90;;;2.47;;
2646;SDS011;1333;50.958;6.770;2023-09-18T05:13:34;3.53;;;3.23;;
2646;SDS011;1333;50.958;6.770;2023-09-18T05:15:59;5.30;;;2.90;;
2646;SDS011;1333;50.958;6.770;2023-09-18T05:18:26;4.60;;;2.50;;
2646;SDS011;1333;50.958;6.770;2023-09-18T05:20:51;5.33;;;2.83;;
2646;SDS011;1333;50.958;6.770;2023-09-18T05:23:17;4.40;;;2.60;;
2646;SDS011;1333;50.958;6.770;2023-09-18T05:25:43;5.50;;;2.60;;
2646;SDS011;1333;50.958;6.770;2023-09-18T05:28:09;5.70;;;2.83;;
2646;SDS011;1333;50.958;6.770;2023-09-18T05:30:34;4.90;;;2.33;;
2646;SDS011;1333;50.958;6.770;2023-09-18T05:33:03;3.27;;;2.40;;
2646;SDS011;1333;50.958;6.770;2023-09-18T05:35:36;3.70;;;2.43;;
2646;SDS011;1333;50.958;6.770;2023-09-18T05:38:06;5.47;;;2.67;;
2646;SDS011;1333;50.958;6.770;2023-09-18T05:40:32;4.17;;;3.43;;
2646;SDS011;1333;50.958;6.770;2023-09-18T05:42:58;6.30;;;2.00;;
2646;SDS011;1333;50.958;6.770;2023-09-18T05:45:24;4.80;;;2.20;;
2646;SDS011;1333;50.958;6.770;2023-09-18T05:47:51;3.93;;;2.47;;
2646;SDS011;1333;50.958;6.770;2023-09-18T05:50:18;2.17;;;1.97;;
2646;SDS011;1333;50.958;6.770;2023-09-18T05:52:44;3.97;;;1.97;;
2646;SDS011;1333;50.958;6.770;2023-09-18T05:55:11;3.50;;;2.20;;
2646;SDS011;1333;50.958;6.770;2023-09-18T05:57:37;3.10;;;2.43;;
2646;SDS011;1333;50.958;6.770;2023-09-18T06:00:03;4.50;;;2.00;;
2646;SDS011;1333;50.958;6.770;2023-09-18T06:02:30;2.50;;;2.30;;
2646;SDS011;1333;50.958;6.770;2023-09-18T06:04:56;8.53;;;4.30;;
2646;SDS011;1333;50.958;6.770;2023-09-18T06:07:26;3.87;;;2.03;;
2646;SDS011;1333;50.958;6.770;2023-09-18T06:09:52;3.83;;;1.63;;
2646;SDS011;1333;50.958;6.770;2023-09-18T06:12:18;5.20;;;1.97;;
2646;SDS011;1333;50.958;6.770;2023-09-18T06:14:43;1.80;;;1.70;;
2646;SDS011;1333;50.958;6.770;2023-09-18T06:17:10;3.70;;;2.20;;
2646;SDS011;1333;50.958;6.770;2023-09-18T06:19:35;2.00;;;1.80;;
2646;SDS011;1333;50.958;6.770;2023-09-18T06:22:01;2.47;;;1.93;;
2646;SDS011;1333;50.958;6.770;2023-09-18T06:24:27;3.70;;;1.70;;
2646;SDS011;1333;50.958;6.770;2023-09-18T06:26:52;2.60;;;1.53;;
2646;SDS011;1333;50.958;6.770;2023-09-18T06:29:18;3.77;;;1.90;;
2646;SDS011;1333;50.958;6.770;2023-09-18T06:31:44;2.30;;;1.43;;
2646;SDS011;1333;50.958;6.770;2023-09-18T06:34:10;3.47;;;2.33;;
2646;SDS011;1333;50.958;6.770;2023-09-18T06:36:35;3.10;;;1.73;;
2646;SDS011;1333;50.958;6.770;2023-09-18T06:39:02;5.30;;;1.40;;
2646;SDS011;1333;50.958;6.770;2023-09-18T06:41:28;2.80;;;1.43;;
2646;SDS011;1333;50.958;6.770;2023-09-18T06:43:53;1.60;;;1.43;;
2646;SDS011;1333;50.958;6.770;2023-09-18T06:46:19;2.20;;;1.30;;
2646;SDS011;1333;50.958;6.770;2023-09-18T06:48:44;2.80;;;1.30;;
2646;SDS011;1333;50.958;6.770;2023-09-18T06:51:14;1.90;;;1.27;;
2646;SDS011;1333;50.958;6.770;2023-09-18T06:53:40;1.60;;;1.50;;
2646;SDS011;1333;50.958;6.770;2023-09-18T06:56:06;4.13;;;1.43;;
2646;SDS011;1333;50.958;6.770;2023-09-18T06:58:31;5.33;;;2.80;;
2646;SDS011;1333;50.958;6.770;2023-09-18T07:00:57;2.77;;;1.70;;
2646;SDS011;1333;50.958;6.770;2023-09-18T07:03:22;8.60;;;2.27;;
2646;SDS011;1333;50.958;6.770;2023-09-18T07:05:48;2.70;;;1.33;;
2646;SDS011;1333;50.958;6.770;2023-09-18T07:08:14;2.40;;;1.90;;
2646;SDS011;1333;50.958;6.770;2023-09-18T07:10:44;4.40;;;1.63;;
2646;SDS011;1333;50.958;6.770;2023-09-18T07:13:09;1.83;;;1.40;;
2646;SDS011;1333;50.958;6.770;2023-09-18T07:15:36;1.77;;;1.37;;
2646;SDS011;1333;50.958;6.770;2023-09-18T07:18:02;1.93;;;1.67;;
2646;SDS011;1333;50.958;6.770;2023-09-18T07:20:28;3.83;;;1.90;;
2646;SDS011;1333;50.958;6.770;2023-09-18T07:22:53;1.60;;;1.30;;
2646;SDS011;1333;50.958;6.770;2023-09-18T07:25:19;3.83;;;1.80;;
2646;SDS011;1333;50.958;6.770;2023-09-18T07:27:45;2.90;;;1.50;;
2646;SDS011;1333;50.958;6.770;2023-09-18T07:30:11;1.27;;;1.10;;
2646;SDS011;1333;50.958;6.770;2023-09-18T07:32:39;2.17;;;1.50;;
2646;SDS011;1333;50.958;6.770;2023-09-18T07:35:05;2.80;;;1.53;;
2646;SDS011;1333;50.958;6.770;2023-09-18T07:37:32;1.43;;;1.20;;
2646;SDS011;1333;50.958;6.770;2023-09-18T07:39:57;3.40;;;1.47;;
2646;SDS011;1333;50.958;6.770;2023-09-18T07:42:26;1.97;;;1.30;;
2646;SDS011;1333;50.958;6.770;2023-09-18T07:44:52;10.30;;;1.80;;
2646;SDS011;1333;50.958;6.770;2023-09-18T07:47:18;1.70;;;1.57;;
2646;SDS011;1333;50.958;6.770;2023-09-18T07:49:44;1.87;;;1.27;;
2646;SDS011;1333;50.958;6.770;2023-09-18T07:52:09;3.17;;;1.43;;
2646;SDS011;1333;50.958;6.770;2023-09-18T07:54:35;1.60;;;1.20;;
2646;SDS011;1333;50.958;6.770;2023-09-18T07:57:00;3.90;;;1.60;;
2646;SDS011;1333;50.958;6.770;2023-09-18T07:59:26;1.87;;;1.50;;
2646;SDS011;1333;50.958;6.770;2023-09-18T08:01:52;1.33;;;1.23;;
2646;SDS011;1333;50.958;6.770;2023-09-18T08:04:19;2.43;;;1.37;;
2646;SDS011;1333;50.958;6.770;2023-09-18T08:06:45;3.13;;;2.00;;
2646;SDS011;1333;50.958;6.770;2023-09-18T08:09:11;1.23;;;1.03;;
2646;SDS011;1333;50.958;6.770;2023-09-18T08:11:39;2.27;;;1.20;;
2646;SDS011;1333;50.958;6.770;2023-09-18T08:14:07;4.70;;;1.60;;
2646;SDS011;1333;50.958;6.770;2023-09-18T08:16:33;5.17;;;1.37;;
2646;SDS011;1333;50.958;6.770;2023-09-18T08:18:58;4.40;;;2.13;;
2646;SDS011;1333;50.958;6.770;2023-09-18T08:21:25;3.03;;;1.70;;
2646;SDS011;1333;50.958;6.770;2023-09-18T08:23:53;2.07;;;1.53;;
2646;SDS011;1333;50.958;6.770;2023-09-18T08:26:19;1.97;;;1.20;;
2646;SDS011;1333;50.958;6.770;2023-09-18T08:28:45;5.53;;;1.90;;
2646;SDS011;1333;50.958;6.770;2023-09-18T08:31:11;1.77;;;1.13;;
2646;SDS011;1333;50.958;6.770;2023-09-18T08:33:37;1.67;;;1.57;;
2646;SDS011;1333;50.958;6.770;2023-09-18T08:36:02;4.53;;;1.40;;
2646;SDS011;1333;50.958;6.770;2023-09-18T08:38:28;2.03;;;1.50;;
2646;SDS011;1333;50.958;6.770;2023-09-18T08:40:54;3.77;;;1.20;;
2646;SDS011;1333;50.958;6.770;2023-09-18T08:43:19;3.00;;;1.53;;
2646;SDS011;1333;50.958;6.770;2023-09-18T08:45:48;2.43;;;1.33;;
2646;SDS011;1333;50.958;6.770;2023-09-18T08:48:17;1.60;;;1.50;;
2646;SDS011;1333;50.958;6.770;2023-09-18T08:50:43;4.93;;;1.30;;
2646;SDS011;1333;50.958;6.770;2023-09-18T08:53:10;1.73;;;1.40;;
2646;SDS011;1333;50.958;6.770;2023-09-18T08:55:36;1.97;;;1.40;;
2646;SDS011;1333;50.958;6.770;2023-09-18T08:58:02;1.63;;;1.23;;
2646;SDS011;1333;50.958;6.770;2023-09-18T09:00:27;1.77;;;1.17;;
2646;SDS011;1333;50.958;6.770;2023-09-18T09:02:53;2.20;;;1.30;;
2646;SDS011;1333;50.958;6.770;2023-09-18T09:05:22;2.03;;;1.50;;
2646;SDS011;1333;50.958;6.770;2023-09-18T09:07:48;1.93;;;1.40;;
2646;SDS011;1333;50.958;6.770;2023-09-18T09:10:15;2.73;;;1.30;;
2646;SDS011;1333;50.958;6.770;2023-09-18T09:15:13;2.23;;;1.47;;
2646;SDS011;1333;50.958;6.770;2023-09-18T09:17:39;6.47;;;2.10;;
2646;SDS011;1333;50.958;6.770;2023-09-18T09:20:09;1.40;;;1.13;;
2646;SDS011;1333;50.958;6.770;2023-09-18T09:22:39;2.00;;;1.13;;
2646;SDS011;1333;50.958;6.770;2023-09-18T09:25:22;1.70;;;1.40;;
2646;SDS011;1333;50.958;6.770;2023-09-18T09:27:52;2.07;;;1.87;;
2646;SDS011;1333;50.958;6.770;2023-09-18T09:30:21;2.20;;;1.40;;
2646;SDS011;1333;50.958;6.770;2023-09-18T09:32:49;2.53;;;1.30;;
2646;SDS011;1333;50.958;6.770;2023-09-18T09:35:20;2.43;;;1.33;;
2646;SDS011;1333;50.958;6.770;2023-09-18T09:37:52;2.30;;;1.57;;
2646;SDS011;1333;50.958;6.770;2023-09-18T09:40:20;6.00;;;1.97;;
2646;SDS011;1333;50.958;6.770;2023-09-18T09:42:47;1.70;;;1.60;;
2646;SDS011;1333;50.958;6.770;2023-09-18T09:45:16;4.50;;;1.60;;
2646;SDS011;1333;50.958;6.770;2023-09-18T09:47:42;2.47;;;1.20;;
2646;SDS011;1333;50.958;6.770;2023-09-18T09:50:12;3.30;;;1.90;;
2646;SDS011;1333;50.958;6.770;2023-09-18T09:52:47;1.60;;;1.43;;
2646;SDS011;1333;50.958;6.770;2023-09-18T09:55:28;2.60;;;1.47;;
2646;SDS011;1333;50.958;6.770;2023-09-18T09:57:57;1.47;;;0.93;;
2646;SDS011;1333;50.958;6.770;2023-09-18T10:00:32;8.50;;;1.70;;
2646;SDS011;1333;50.958;6.770;2023-09-18T10:03:08;2.80;;;1.27;;
2646;SDS011;1333;50.958;6.770;2023-09-18T10:05:35;2.60;;;1.30;;
2646;SDS011;1333;50.958;6.770;2023-09-18T10:08:03;1.30;;;1.10;;
2646;SDS011;1333;50.958;6.770;2023-09-18T10:10:30;5.53;;;1.50;;
2646;SDS011;1333;50.958;6.770;2023-09-18T10:13:00;1.97;;;1.43;;
2646;SDS011;1333;50.958;6.770;2023-09-18T10:15:34;3.20;;;1.50;;
2646;SDS011;1333;50.958;6.770;2023-09-18T10:18:03;2.07;;;1.40;;
2646;SDS011;1333;50.958;6.770;2023-09-18T10:20:33;2.53;;;1.40;;
2646;SDS011;1333;50.958;6.770;2023-09-18T10:23:09;4.40;;;1.73;;
2646;SDS011;1333;50.958;6.770;2023-09-18T10:25:48;1.27;;;1.17;;
2646;SDS011;1333;50.958;6.770;2023-09-18T10:28:17;1.40;;;1.30;;
2646;SDS011;1333;50.958;6.770;2023-09-18T10:30:43;2.10;;;1.50;;
2646;SDS011;1333;50.958;6.770;2023-09-18T10:33:09;2.97;;;1.30;;
2646;SDS011;1333;50.958;6.770;2023-09-18T10:35:35;1.50;;;1.40;;
2646;SDS011;1333;50.958;6.770;2023-09-18T10:38:02;1.33;;;1.13;;
2646;SDS011;1333;50.958;6.770;2023-09-18T10:40:31;2.40;;;1.50;;
2646;SDS011;1333;50.958;6.770;2023-09-18T10:42:59;2.60;;;1.73;;
2646;SDS011;1333;50.958;6.770;2023-09-18T10:45:27;1.90;;;1.80;;
2646;SDS011;1333;50.958;6.770;2023-09-18T10:47:53;2.27;;;1.57;;
2646;SDS011;1333;50.958;6.770;2023-09-18T10:50:23;4.60;;;1.90;;
2646;SDS011;1333;50.958;6.770;2023-09-18T10:52:50;1.53;;;1.43;;
2646;SDS011;1333;50.958;6.770;2023-09-18T10:55:15;1.77;;;1.67;;
2646;SDS011;1333;50.958;6.770;2023-09-18T10:57:54;1.60;;;1.50;;
2646;SDS011;1333;50.958;6.770;2023-09-18T11:00:21;1.70;;;1.60;;
2646;SDS011;1333;50.958;6.770;2023-09-18T11:02:53;4.30;;;1.70;;
2646;SDS011;1333;50.958;6.770;2023-09-18T11:05:39;1.40;;;1.20;;
2646;SDS011;1333;50.958;6.770;2023-09-18T11:10:56;4.60;;;1.43;;
2646;SDS011;1333;50.958;6.770;2023-09-18T11:13:56;1.43;;;1.33;;
2646;SDS011;1333;50.958;6.770;2023-09-18T11:18:51;3.00;;;1.60;;
2646;SDS011;1333;50.958;6.770;2023-09-18T11:21:24;2.03;;;1.70;;
2646;SDS011;1333;50.958;6.770;2023-09-18T11:24:00;2.63;;;1.80;;
2646;SDS011;1333;50.958;6.770;2023-09-18T11:26:36;1.63;;;1.40;;
2646;SDS011;1333;50.958;6.770;2023-09-18T11:29:05;2.90;;;2.33;;
2646;SDS011;1333;50.958;6.770;2023-09-18T11:34:12;2.30;;;1.80;;
2646;SDS011;1333;50.958;6.770;2023-09-18T11:36:39;2.03;;;1.83;;
2646;SDS011;1333;50.958;6.770;2023-09-18T11:39:05;1.83;;;1.50;;
2646;SDS011;1333;50.958;6.770;2023-09-18T11:41:32;2.30;;;1.73;;
2646;SDS011;1333;50.958;6.770;2023-09-18T11:44:31;1.80;;;1.70;;
2646;SDS011;1333;50.958;6.770;2023-09-18T11:46:53;1.73;;;1.47;;
2646;SDS011;1333;50.958;6.770;2023-09-18T11:49:20;9.03;;;2.37;;
2646;SDS011;1333;50.958;6.770;2023-09-18T11:51:51;2.37;;;2.00;;
2646;SDS011;1333;50.958;6.770;2023-09-18T11:54:17;1.90;;;1.80;;
2646;SDS011;1333;50.958;6.770;2023-09-18T11:56:43;1.70;;;1.60;;
2646;SDS011;1333;50.958;6.770;2023-09-18T11:59:09;2.23;;;1.60;;
2646;SDS011;1333;50.958;6.770;2023-09-18T12:01:35;2.17;;;1.70;;
2646;SDS011;1333;50.958;6.770;2023-09-18T12:04:02;2.47;;;1.90;;
2646;SDS011;1333;50.958;6.770;2023-09-18T12:06:35;2.07;;;1.87;;
2646;SDS011;1333;50.958;6.770;2023-09-18T12:09:01;1.77;;;1.67;;
2646;SDS011;1333;50.958;6.770;2023-09-18T12:11:28;2.13;;;1.80;;
2646;SDS011;1333;50.958;6.770;2023-09-18T12:13:54;2.90;;;1.87;;
2646;SDS011;1333;50.958;6.770;2023-09-18T12:16:20;1.80;;;1.57;;
2646;SDS011;1333;50.958;6.770;2023-09-18T12:18:47;1.93;;;1.63;;
2646;SDS011;1333;50.958;6.770;2023-09-18T12:21:13;3.30;;;1.80;;
2646;SDS011;1333;50.958;6.770;2023-09-18T12:23:42;3.03;;;2.10;;
2646;SDS011;1333;50.958;6.770;2023-09-18T12:26:12;2.03;;;1.73;;
2646;SDS011;1333;50.958;6.770;2023-09-18T12:28:43;1.80;;;1.40;;
2646;SDS011;1333;50.958;6.770;2023-09-18T12:31:10;1.80;;;1.70;;
2646;SDS011;1333;50.958;6.770;2023-09-18T12:33:40;2.13;;;1.80;;
2646;SDS011;1333;50.958;6.770;2023-09-18T12:36:08;3.40;;;1.30;;
2646;SDS011;1333;50.958;6.770;2023-09-18T12:38:35;1.53;;;1.33;;
2646;SDS011;1333;50.958;6.770;2023-09-18T12:41:02;2.73;;;2.07;;
2646;SDS011;1333;50.958;6.770;2023-09-18T12:43:35;2.57;;;2.13;;
2646;SDS011;1333;50.958;6.770;2023-09-18T12:46:02;2.93;;;1.87;;
2646;SDS011;1333;50.958;6.770;2023-09-18T12:48:29;3.23;;;1.57;;
2646;SDS011;1333;50.958;6.770;2023-09-18T12:50:55;1.57;;;1.47;;
2646;SDS011;1333;50.958;6.770;2023-09-18T12:53:26;1.60;;;1.50;;
2646;SDS011;1333;50.958;6.770;2023-09-18T12:55:52;4.23;;;1.67;;
2646;SDS011;1333;50.958;6.770;2023-09-18T12:58:18;2.90;;;1.80;;
2646;SDS011;1333;50.958;6.770;2023-09-18T13:00:47;1.73;;;1.63;;
2646;SDS011;1333;50.958;6.770;2023-09-18T13:03:17;2.50;;;1.67;;
2646;SDS011;1333;50.958;6.770;2023-09-18T13:05:43;1.80;;;1.70;;
2646;SDS011;1333;50.958;6.770;2023-09-18T13:08:09;1.47;;;1.37;;
2646;SDS011;1333;50.958;6.770;2023-09-18T13:10:40;1.73;;;1.63;;
2646;SDS011;1333;50.958;6.770;2023-09-18T13:13:07;1.70;;;1.60;;
2646;SDS011;1333;50.958;6.770;2023-09-18T13:15:41;2.60;;;1.90;;
2646;SDS011;1333;50.958;6.770;2023-09-18T13:18:10;3.30;;;2.10;;
2646;SDS011;1333;50.958;6.770;2023-09-18T13:20:36;3.43;;;1.77;;
2646;SDS011;1333;50.958;6.770;2023-09-18T13:23:02;4.80;;;2.00;;
2646;SDS011;1333;50.958;6.770;2023-09-18T13:25:37;1.63;;;1.53;;
2646;SDS011;1333;50.958;6.770;2023-09-18T13:28:06;2.27;;;1.60;;
2646;SDS011;1333;50.958;6.770;2023-09-18T13:30:32;1.73;;;1.63;;
2646;SDS011;1333;50.958;6.770;2023-09-18T13:33:05;2.00;;;1.73;;
2646;SDS011;1333;50.958;6.770;2023-09-18T13:35:32;2.23;;;1.80;;
2646;SDS011;1333;50.958;6.770;2023-09-18T13:37:58;3.67;;;1.93;;
2646;SDS011;1333;50.958;6.770;2023-09-18T13:40:24;2.47;;;2.13;;
2646;SDS011;1333;50.958;6.770;2023-09-18T13:42:50;1.73;;;1.63;;
2646;SDS011;1333;50.958;6.770;2023-09-18T13:45:16;1.70;;;1.60;;
2646;SDS011;1333;50.958;6.770;2023-09-18T13:47:41;2.00;;;1.80;;
2646;SDS011;1333;50.958;6.770;2023-09-18T13:50:07;2.40;;;2.20;;
2646;SDS011;1333;50.958;6.770;2023-09-18T13:52:35;2.83;;;2.00;;
2646;SDS011;1333;50.958;6.770;2023-09-18T13:55:02;2.80;;;2.60;;
2646;SDS011;1333;50.958;6.770;2023-09-18T13:57:32;2.43;;;2.23;;
2646;SDS011;1333;50.958;6.770;2023-09-18T13:59:59;1.83;;;1.67;;
2646;SDS011;1333;50.958;6.770;2023-09-18T14:02:25;1.83;;;1.70;;
2646;SDS011;1333;50.958;6.770;2023-09-18T14:04:55;2.80;;;1.50;;
2646;SDS011;1333;50.958;6.770;2023-09-18T14:07:21;3.60;;;1.73;;
2646;SDS011;1333;50.958;6.770;2023-09-18T14:09:47;2.10;;;1.40;;
2646;SDS011;1333;50.958;6.770;2023-09-18T14:12:13;1.93;;;1.80;;
2646;SDS011;1333;50.958;6.770;2023-09-18T14:14:38;1.60;;;1.50;;
2646;SDS011;1333;50.958;6.770;2023-09-18T14:17:05;1.50;;;1.40;;
2646;SDS011;1333;50.958;6.770;2023-09-18T14:19:31;3.40;;;1.77;;
2646;SDS011;1333;50.958;6.770;2023-09-18T14:21:56;2.43;;;1.70;;
2646;SDS011;1333;50.958;6.770;2023-09-18T14:24:22;2.23;;;1.30;;
2646;SDS011;1333;50.958;6.770;2023-09-18T14:26:53;2.40;;;1.57;;
2646;SDS011;1333;50.958;6.770;2023-09-18T14:29:20;2.60;;;1.73;;
2646;SDS011;1333;50.958;6.770;2023-09-18T14:31:45;2.13;;;1.50;;
2646;SDS011;1333;50.958;6.770;2023-09-18T14:34:11;1.83;;;1.60;;
2646;SDS011;1333;50.958;6.770;2023-09-18T14:36:37;1.83;;;1.73;;
2646;SDS011;1333;50.958;6.770;2023-09-18T14:39:04;1.80;;;1.70;;
2646;SDS011;1333;50.958;6.770;2023-09-18T14:41:33;3.00;;;1.60;;
2646;SDS011;1333;50.958;6.770;2023-09-18T14:44:06;1.70;;;1.43;;
2646;SDS011;1333;50.958;6.770;2023-09-18T14:46:33;2.17;;;1.77;;
2646;SDS011;1333;50.958;6.770;2023-09-18T14:48:59;1.77;;;1.47;;
2646;SDS011;1333;50.958;6.770;2023-09-18T14:51:26;2.40;;;1.53;;
2646;SDS011;1333;50.958;6.770;2023-09-18T14:53:53;1.70;;;1.60;;
2646;SDS011;1333;50.958;6.770;2023-09-18T14:56:19;2.00;;;1.77;;
2646;SDS011;1333;50.958;6.770;2023-09-18T14:58:44;1.97;;;1.77;;
2646;SDS011;1333;50.958;6.770;2023-09-18T15:01:10;2.13;;;1.80;;
2646;SDS011;1333;50.958;6.770;2023-09-18T15:03:36;1.90;;;1.77;;
2646;SDS011;1333;50.958;6.770;2023-09-18T15:06:02;1.87;;;1.63;;
2646;SDS011;1333;50.958;6.770;2023-09-18T15:08:28;2.10;;;1.80;;
2646;SDS011;1333;50.958;6.770;2023-09-18T15:10:54;1.63;;;1.50;;
2646;SDS011;1333;50.958;6.770;2023-09-18T15:13:19;2.13;;;1.70;;
2646;SDS011;1333;50.958;6.770;2023-09-18T15:15:45;1.50;;;1.30;;
2646;SDS011;1333;50.958;6.770;2023-09-18T15:18:10;2.57;;;2.37;;
2646;SDS011;1333;50.958;6.770;2023-09-18T15:20:36;3.07;;;1.53;;
2646;SDS011;1333;50.958;6.770;2023-09-18T15:23:03;3.70;;;1.67;;
2646;SDS011;1333;50.958;6.770;2023-09-18T15:25:30;1.50;;;1.37;;
2646;SDS011;1333;50.958;6.770;2023-09-18T15:27:56;1.97;;;1.53;;